sensor_id;sensor_type;location;lat;lon;timestamp;pressure;altitude;pressure_sealevel;temperature;humidity
19236;BME280;9752;54.270;12.470;2023-04-07T00:01:10;102483.09;;;-1.26;100.00
19236;BME280;9752;54.270;12.470;2023-04-07T00:06:12;102491.47;;;-1.27;100.00
19236;BME280;9752;54.270;12.470;2023-04-07T00:11:16;102491.00;;;-1.43;100.00
19236;BME280;9752;54.270;12.470;2023-04-07T00:16:18;102489.50;;;-1.48;100.00
19236;BME280;9752;54.270;12.470;2023-04-07T00:21:20;102498.63;;;-1.43;100.00
19236;BME280;9752;54.270;12.470;2023-04-07T00:26:23;102497.81;;;-1.49;100.00
19236;BME280;9752;54.270;12.470;2023-04-07T00:31:26;102502.66;;;-1.63;100.00
19236;BME280;9752;54.270;12.470;2023-04-07T00:36:28;102495.31;;;-1.67;100.00
19236;BME280;9752;54.270;12.470;2023-04-07T00:41:34;102501.81;;;-1.69;100.00
19236;BME280;9752;54.270;12.470;2023-04-07T00:46:36;102508.34;;;-1.71;100.00
19236;BME280;9752;54.270;12.470;2023-04-07T00:51:38;102503.31;;;-1.77;100.00
19236;BME280;9752;54.270;12.470;2023-04-07T00:56:41;102507.59;;;-1.83;100.00
19236;BME280;9752;54.270;12.470;2023-04-07T01:01:45;102512.38;;;-1.79;100.00
19236;BME280;9752;54.270;12.470;2023-04-07T01:06:50;102518.75;;;-1.88;100.00
19236;BME280;9752;54.270;12.470;2023-04-07T01:12:05;102525.91;;;-1.86;100.00
19236;BME280;9752;54.270;12.470;2023-04-07T01:17:09;102524.91;;;-1.99;100.00
19236;BME280;9752;54.270;12.470;2023-04-07T01:22:15;102529.06;;;-2.00;100.00
19236;BME280;9752;54.270;12.470;2023-04-07T01:27:24;102524.84;;;-2.12;100.00
19236;BME280;9752;54.270;12.470;2023-04-07T01:32:36;102525.22;;;-2.22;100.00
19236;BME280;9752;54.270;12.470;2023-04-07T01:37:40;102527.00;;;-2.39;100.00
19236;BME280;9752;54.270;12.470;2023-04-07T01:42:42;102531.69;;;-2.42;100.00
19236;BME280;9752;54.270;12.470;2023-04-07T01:47:46;102533.09;;;-2.44;100.00
19236;BME280;9752;54.270;12.470;2023-04-07T01:52:49;102541.22;;;-2.28;100.00
19236;BME280;9752;54.270;12.470;2023-04-07T01:57:52;102548.97;;;-2.40;100.00
19236;BME280;9752;54.270;12.470;2023-04-07T02:03:00;102549.63;;;-2.35;100.00
19236;BME280;9752;54.270;12.470;2023-04-07T02:08:07;102555.03;;;-2.26;100.00
19236;BME280;9752;54.270;12.470;2023-04-07T02:13:12;102565.88;;;-2.22;100.00
19236;BME280;9752;54.270;12.470;2023-04-07T02:18:20;102565.06;;;-2.33;100.00
19236;BME280;9752;54.270;12.470;2023-04-07T02:23:23;102571.59;;;-2.41;100.00
19236;BME280;9752;54.270;12.470;2023-04-07T02:28:24;102578.25;;;-2.36;100.00
19236;BME280;9752;54.270;12.470;2023-04-07T02:33:27;102576.22;;;-2.39;100.00
19236;BME280;9752;54.270;12.470;2023-04-07T02:38:29;102586.06;;;-2.29;100.00
19236;BME280;9752;54.270;12.470;2023-04-07T02:43:31;102595.03;;;-2.25;100.00
19236;BME280;9752;54.270;12.470;2023-04-07T02:48:34;102604.00;;;-2.22;100.00
19236;BME280;9752;54.270;12.470;2023-04-07T02:53:36;102617.09;;;-1.94;100.00
19236;BME280;9752;54.270;12.470;2023-04-07T02:58:38;102604.78;;;-2.10;100.00
19236;BME280;9752;54.270;12.470;2023-04-07T03:03:42;102620.53;;;-2.12;100.00
19236;BME280;9752;54.270;12.470;2023-04-07T03:08:49;102620.44;;;-2.07;100.00
19236;BME280;9752;54.270;12.470;2023-04-07T03:13:51;102622.97;;;-2.25;100.00
19236;BME280;9752;54.270;12.470;2023-04-07T03:18:54;102620.00;;;-2.28;100.00
19236;BME280;9752;54.270;12.470;2023-04-07T03:23:57;102631.63;;;-2.36;100.00
19236;BME280;9752;54.270;12.470;2023-04-07T03:28:58;102617.56;;;-2.40;100.00
19236;BME280;9752;54.270;12.470;2023-04-07T03:34:02;102628.91;;;-2.19;100.00
19236;BME280;9752;54.270;12.470;2023-04-07T03:39:04;102637.84;;;-2.10;100.00
19236;BME280;9752;54.270;12.470;2023-04-07T03:44:07;102645.56;;;-2.21;100.00
19236;BME280;9752;54.270;12.470;2023-04-07T03:49:12;102649.56;;;-2.05;100.00
19236;BME280;9752;54.270;12.470;2023-04-07T03:54:14;102656.59;;;-2.15;100.00
19236;BME280;9752;54.270;12.470;2023-04-07T03:59:18;102670.16;;;-2.09;100.00
19236;BME280;9752;54.270;12.470;2023-04-07T04:04:30;102667.50;;;-2.16;100.00
19236;BME280;9752;54.270;12.470;2023-04-07T04:09:33;102920.47;;;-2.07;100.00
19236;BME280;9752;54.270;12.470;2023-04-07T04:14:34;102940.28;;;-1.93;100.00
19236;BME280;9752;54.270;12.470;2023-04-07T04:19:40;102941.19;;;-1.92;100.00
19236;BME280;9752;54.270;12.470;2023-04-07T04:24:53;102943.44;;;-2.18;100.00
19236;BME280;9752;54.270;12.470;2023-04-07T04:29:57;102947.75;;;-2.06;100.00
19236;BME280;9752;54.270;12.470;2023-04-07T04:35:10;102965.53;;;-2.06;100.00
19236;BME280;9752;54.270;12.470;2023-04-07T04:40:22;102973.44;;;-2.10;100.00
19236;BME280;9752;54.270;12.470;2023-04-07T04:45:25;102985.34;;;-1.92;100.00
19236;BME280;9752;54.270;12.470;2023-04-07T04:50:28;102997.91;;;-1.69;100.00
19236;BME280;9752;54.270;12.470;2023-04-07T04:55:30;103010.28;;;-1.54;100.00
19236;BME280;9752;54.270;12.470;2023-04-07T05:00:33;103023.84;;;-1.36;100.00
19236;BME280;9752;54.270;12.470;2023-04-07T05:05:40;103022.97;;;-1.48;100.00
19236;BME280;9752;54.270;12.470;2023-04-07T05:10:42;103030.34;;;-1.44;100.00
19236;BME280;9752;54.270;12.470;2023-04-07T05:15:48;103032.25;;;-1.49;100.00
19236;BME280;9752;54.270;12.470;2023-04-07T05:20:51;103046.19;;;-1.23;100.00
19236;BME280;9752;54.270;12.470;2023-04-07T05:25:54;103060.84;;;-1.03;100.00
19236;BME280;9752;54.270;12.470;2023-04-07T05:30:57;103076.69;;;-0.87;100.00
19236;BME280;9752;54.270;12.470;2023-04-07T05:36:06;103093.66;;;-0.69;100.00
19236;BME280;9752;54.270;12.470;2023-04-07T05:41:09;103106.47;;;-0.51;100.00
19236;BME280;9752;54.270;12.470;2023-04-07T05:46:12;103111.00;;;-0.43;100.00
19236;BME280;9752;54.270;12.470;2023-04-07T05:51:23;103124.78;;;-0.29;100.00
19236;BME280;9752;54.270;12.470;2023-04-07T05:56:27;103146.94;;;0.02;100.00
19236;BME280;9752;54.270;12.470;2023-04-07T06:01:29;103167.25;;;0.31;100.00
19236;BME280;9752;54.270;12.470;2023-04-07T06:06:33;103185.28;;;0.88;100.00
19236;BME280;9752;54.270;12.470;2023-04-07T06:11:35;103225.97;;;1.62;100.00
19236;BME280;9752;54.270;12.470;2023-04-07T06:16:37;103253.72;;;2.23;100.00
19236;BME280;9752;54.270;12.470;2023-04-07T06:21:40;103278.16;;;2.72;100.00
19236;BME280;9752;54.270;12.470;2023-04-07T06:26:43;103271.09;;;2.64;100.00
19236;BME280;9752;54.270;12.470;2023-04-07T06:31:45;103259.28;;;2.85;100.00
19236;BME280;9752;54.270;12.470;2023-04-07T06:36:49;103250.97;;;3.13;100.00
19236;BME280;9752;54.270;12.470;2023-04-07T06:41:51;103232.59;;;3.30;100.00
19236;BME280;9752;54.270;12.470;2023-04-07T06:46:53;103216.63;;;3.72;100.00
19236;BME280;9752;54.270;12.470;2023-04-07T06:51:56;103178.78;;;3.91;100.00
19236;BME280;9752;54.270;12.470;2023-04-07T06:56:58;103140.88;;;4.03;100.00
19236;BME280;9752;54.270;12.470;2023-04-07T07:02:00;103094.16;;;4.20;100.00
19236;BME280;9752;54.270;12.470;2023-04-07T07:07:03;103064.50;;;4.80;100.00
19236;BME280;9752;54.270;12.470;2023-04-07T07:12:05;103010.81;;;5.12;100.00
19236;BME280;9752;54.270;12.470;2023-04-07T07:17:07;102940.63;;;5.20;100.00
19236;BME280;9752;54.270;12.470;2023-04-07T07:22:10;102876.22;;;5.34;100.00
19236;BME280;9752;54.270;12.470;2023-04-07T07:27:12;102828.53;;;5.98;100.00
19236;BME280;9752;54.270;12.470;2023-04-07T07:32:14;102776.44;;;6.01;100.00
19236;BME280;9752;54.270;12.470;2023-04-07T07:37:17;102707.38;;;5.66;100.00
19236;BME280;9752;54.270;12.470;2023-04-07T07:42:18;102662.44;;;5.56;100.00
19236;BME280;9752;54.270;12.470;2023-04-07T07:47:21;102640.63;;;5.68;100.00
19236;BME280;9752;54.270;12.470;2023-04-07T07:52:24;102604.59;;;5.68;100.00
19236;BME280;9752;54.270;12.470;2023-04-07T07:57:25;102563.66;;;5.62;100.00
19236;BME280;9752;54.270;12.470;2023-04-07T08:02:27;102535.72;;;5.42;100.00
19236;BME280;9752;54.270;12.470;2023-04-07T08:07:32;102510.19;;;5.60;100.00
19236;BME280;9752;54.270;12.470;2023-04-07T08:12:33;102494.34;;;6.04;100.00
19236;BME280;9752;54.270;12.470;2023-04-07T08:17:35;102467.44;;;6.18;100.00
19236;BME280;9752;54.270;12.470;2023-04-07T08:22:38;102445.09;;;6.35;100.00
19236;BME280;9752;54.270;12.470;2023-04-07T08:27:40;102389.59;;;6.80;100.00
19236;BME280;9752;54.270;12.470;2023-04-07T08:32:43;102373.81;;;6.86;100.00
19236;BME280;9752;54.270;12.470;2023-04-07T08:37:46;102366.94;;;6.52;100.00
19236;BME280;9752;54.270;12.470;2023-04-07T08:42:49;102367.56;;;6.67;100.00
19236;BME280;9752;54.270;12.470;2023-04-07T08:47:54;102369.72;;;6.79;100.00
19236;BME280;9752;54.270;12.470;2023-04-07T08:52:59;102353.66;;;6.91;100.00
19236;BME280;9752;54.270;12.470;2023-04-07T08:58:02;102350.31;;;6.83;100.00
19236;BME280;9752;54.270;12.470;2023-04-07T09:03:04;102345.41;;;7.56;100.00
19236;BME280;9752;54.270;12.470;2023-04-07T09:08:07;102343.16;;;7.59;100.00
19236;BME280;9752;54.270;12.470;2023-04-07T09:13:09;102346.06;;;7.27;100.00
19236;BME280;9752;54.270;12.470;2023-04-07T09:18:11;102353.66;;;6.99;100.00
19236;BME280;9752;54.270;12.470;2023-04-07T09:23:26;102354.50;;;6.56;100.00
19236;BME280;9752;54.270;12.470;2023-04-07T09:28:40;102354.66;;;6.49;100.00
19236;BME280;9752;54.270;12.470;2023-04-07T09:33:42;102347.13;;;6.17;100.00
19236;BME280;9752;54.270;12.470;2023-04-07T09:38:45;102355.63;;;6.25;100.00
19236;BME280;9752;54.270;12.470;2023-04-07T09:43:47;102352.09;;;5.82;100.00
19236;BME280;9752;54.270;12.470;2023-04-07T09:49:01;102353.00;;;6.08;100.00
19236;BME280;9752;54.270;12.470;2023-04-07T09:54:06;102351.94;;;6.14;100.00
19236;BME280;9752;54.270;12.470;2023-04-07T09:59:07;102352.66;;;5.80;100.00
19236;BME280;9752;54.270;12.470;2023-04-07T10:04:10;102363.91;;;5.40;100.00
19236;BME280;9752;54.270;12.470;2023-04-07T10:09:13;102357.91;;;5.48;100.00
19236;BME280;9752;54.270;12.470;2023-04-07T10:14:17;102357.59;;;5.45;100.00
19236;BME280;9752;54.270;12.470;2023-04-07T10:19:20;102367.81;;;5.36;100.00
19236;BME280;9752;54.270;12.470;2023-04-07T10:24:33;102364.69;;;5.23;100.00
19236;BME280;9752;54.270;12.470;2023-04-07T10:29:41;102361.69;;;5.27;100.00
19236;BME280;9752;54.270;12.470;2023-04-07T10:34:57;102366.03;;;5.35;100.00
19236;BME280;9752;54.270;12.470;2023-04-07T10:40:28;102359.59;;;5.72;100.00
19236;BME280;9752;54.270;12.470;2023-04-07T10:45:53;102375.03;;;5.47;100.00
19236;BME280;9752;54.270;12.470;2023-04-07T10:51:18;102371.22;;;5.44;100.00
19236;BME280;9752;54.270;12.470;2023-04-07T10:56:21;102364.72;;;5.72;100.00
19236;BME280;9752;54.270;12.470;2023-04-07T11:01:23;102373.41;;;5.32;100.00
19236;BME280;9752;54.270;12.470;2023-04-07T11:06:25;102377.34;;;5.13;100.00
19236;BME280;9752;54.270;12.470;2023-04-07T11:11:37;102385.13;;;5.05;100.00
19236;BME280;9752;54.270;12.470;2023-04-07T11:16:41;102389.19;;;5.03;100.00
19236;BME280;9752;54.270;12.470;2023-04-07T11:21:44;102394.38;;;4.64;100.00
19236;BME280;9752;54.270;12.470;2023-04-07T11:26:48;102396.78;;;4.47;100.00
19236;BME280;9752;54.270;12.470;2023-04-07T11:31:49;102407.03;;;4.47;100.00
19236;BME280;9752;54.270;12.470;2023-04-07T11:36:51;102418.59;;;4.66;100.00
19236;BME280;9752;54.270;12.470;2023-04-07T11:41:55;102421.31;;;4.52;100.00
19236;BME280;9752;54.270;12.470;2023-04-07T11:46:58;102417.09;;;4.68;100.00
19236;BME280;9752;54.270;12.470;2023-04-07T11:52:01;102433.22;;;4.75;100.00
19236;BME280;9752;54.270;12.470;2023-04-07T11:57:04;102432.00;;;5.03;100.00
19236;BME280;9752;54.270;12.470;2023-04-07T12:02:06;102445.94;;;5.05;100.00
19236;BME280;9752;54.270;12.470;2023-04-07T12:07:10;102444.09;;;4.88;100.00
19236;BME280;9752;54.270;12.470;2023-04-07T12:12:13;102454.47;;;4.81;100.00
19236;BME280;9752;54.270;12.470;2023-04-07T12:17:19;102454.31;;;4.95;100.00
19236;BME280;9752;54.270;12.470;2023-04-07T12:22:21;102455.13;;;4.87;100.00
19236;BME280;9752;54.270;12.470;2023-04-07T12:27:24;102452.84;;;4.97;100.00
19236;BME280;9752;54.270;12.470;2023-04-07T12:32:26;102450.00;;;5.19;100.00
19236;BME280;9752;54.270;12.470;2023-04-07T12:37:28;102455.31;;;5.36;100.00
19236;BME280;9752;54.270;12.470;2023-04-07T12:42:31;102451.44;;;5.24;100.00
19236;BME280;9752;54.270;12.470;2023-04-07T12:47:33;102443.97;;;5.18;100.00
19236;BME280;9752;54.270;12.470;2023-04-07T12:52:34;102445.47;;;5.16;100.00
19236;BME280;9752;54.270;12.470;2023-04-07T12:57:38;102441.63;;;5.28;100.00
19236;BME280;9752;54.270;12.470;2023-04-07T13:02:40;102445.44;;;5.32;100.00
19236;BME280;9752;54.270;12.470;2023-04-07T13:07:42;102449.16;;;5.27;100.00
19236;BME280;9752;54.270;12.470;2023-04-07T13:12:45;102442.88;;;5.32;100.00
19236;BME280;9752;54.270;12.470;2023-04-07T13:17:47;102450.75;;;5.02;100.00
19236;BME280;9752;54.270;12.470;2023-04-07T13:22:49;102439.97;;;5.13;100.00
19236;BME280;9752;54.270;12.470;2023-04-07T13:27:52;102435.97;;;4.92;100.00
19236;BME280;9752;54.270;12.470;2023-04-07T13:32:54;102446.91;;;4.82;100.00
19236;BME280;9752;54.270;12.470;2023-04-07T13:37:55;102456.56;;;5.08;100.00
19236;BME280;9752;54.270;12.470;2023-04-07T13:42:59;102465.84;;;5.15;100.00
19236;BME280;9752;54.270;12.470;2023-04-07T13:48:01;102462.47;;;5.07;100.00
19236;BME280;9752;54.270;12.470;2023-04-07T13:53:03;102466.41;;;4.96;100.00
19236;BME280;9752;54.270;12.470;2023-04-07T13:58:06;102461.44;;;4.98;100.00
19236;BME280;9752;54.270;12.470;2023-04-07T14:03:08;102472.47;;;4.97;100.00
19236;BME280;9752;54.270;12.470;2023-04-07T14:08:09;102472.81;;;4.84;100.00
19236;BME280;9752;54.270;12.470;2023-04-07T14:13:12;102481.78;;;4.64;100.00
19236;BME280;9752;54.270;12.470;2023-04-07T14:18:15;102479.28;;;4.57;100.00
19236;BME280;9752;54.270;12.470;2023-04-07T14:23:16;102487.97;;;4.50;100.00
19236;BME280;9752;54.270;12.470;2023-04-07T14:28:20;102504.50;;;4.68;100.00
19236;BME280;9752;54.270;12.470;2023-04-07T14:33:21;102512.56;;;4.72;100.00
19236;BME280;9752;54.270;12.470;2023-04-07T14:38:23;102605.16;;;4.87;100.00
19236;BME280;9752;54.270;12.470;2023-04-07T14:43:26;102600.00;;;4.64;100.00
19236;BME280;9752;54.270;12.470;2023-04-07T14:48:28;102612.44;;;4.68;100.00
19236;BME280;9752;54.270;12.470;2023-04-07T14:53:30;102621.78;;;4.45;100.00
19236;BME280;9752;54.270;12.470;2023-04-07T14:58:33;102629.94;;;4.34;100.00
19236;BME280;9752;54.270;12.470;2023-04-07T15:03:36;102638.97;;;4.23;100.00
19236;BME280;9752;54.270;12.470;2023-04-07T15:08:38;102661.34;;;4.24;100.00
19236;BME280;9752;54.270;12.470;2023-04-07T15:13:41;102704.31;;;4.10;100.00
19236;BME280;9752;54.270;12.470;2023-04-07T15:18:44;102723.59;;;4.07;100.00
19236;BME280;9752;54.270;12.470;2023-04-07T15:23:46;102738.63;;;4.04;100.00
19236;BME280;9752;54.270;12.470;2023-04-07T15:28:49;102769.47;;;3.97;100.00
19236;BME280;9752;54.270;12.470;2023-04-07T15:33:51;102785.97;;;3.99;100.00
19236;BME280;9752;54.270;12.470;2023-04-07T15:38:53;102817.31;;;3.96;100.00
19236;BME280;9752;54.270;12.470;2023-04-07T15:43:57;102843.00;;;3.96;100.00
19236;BME280;9752;54.270;12.470;2023-04-07T15:48:59;102855.69;;;3.95;100.00
19236;BME280;9752;54.270;12.470;2023-04-07T15:54:01;102874.00;;;3.98;100.00
19236;BME280;9752;54.270;12.470;2023-04-07T15:59:04;102887.59;;;3.97;100.00
19236;BME280;9752;54.270;12.470;2023-04-07T16:04:06;102905.19;;;4.01;100.00
19236;BME280;9752;54.270;12.470;2023-04-07T16:09:07;102915.97;;;3.98;100.00
19236;BME280;9752;54.270;12.470;2023-04-07T16:14:11;102926.06;;;4.04;100.00
19236;BME280;9752;54.270;12.470;2023-04-07T16:19:12;102943.53;;;4.06;100.00
19236;BME280;9752;54.270;12.470;2023-04-07T16:24:14;102960.94;;;4.02;100.00
19236;BME280;9752;54.270;12.470;2023-04-07T16:29:18;102961.69;;;4.01;100.00
19236;BME280;9752;54.270;12.470;2023-04-07T16:34:20;102969.56;;;4.02;100.00
19236;BME280;9752;54.270;12.470;2023-04-07T16:39:21;102980.00;;;4.04;100.00
19236;BME280;9752;54.270;12.470;2023-04-07T16:44:24;103000.56;;;4.11;100.00
19236;BME280;9752;54.270;12.470;2023-04-07T16:49:26;103001.66;;;4.13;100.00
19236;BME280;9752;54.270;12.470;2023-04-07T16:54:28;103022.44;;;4.22;100.00
19236;BME280;9752;54.270;12.470;2023-04-07T16:59:31;103025.53;;;4.26;100.00
19236;BME280;9752;54.270;12.470;2023-04-07T17:04:33;103035.28;;;4.22;100.00
19236;BME280;9752;54.270;12.470;2023-04-07T17:09:35;103051.41;;;4.28;100.00
19236;BME280;9752;54.270;12.470;2023-04-07T17:14:38;103061.13;;;4.30;100.00
19236;BME280;9752;54.270;12.470;2023-04-07T17:19:40;103075.09;;;4.40;100.00
19236;BME280;9752;54.270;12.470;2023-04-07T17:24:41;103080.63;;;4.36;100.00
19236;BME280;9752;54.270;12.470;2023-04-07T17:29:45;103083.94;;;4.35;100.00
19236;BME280;9752;54.270;12.470;2023-04-07T17:34:46;103090.19;;;4.37;100.00
19236;BME280;9752;54.270;12.470;2023-04-07T17:39:48;103092.00;;;4.38;100.00
19236;BME280;9752;54.270;12.470;2023-04-07T17:44:52;103091.66;;;4.35;100.00
19236;BME280;9752;54.270;12.470;2023-04-07T17:49:54;103103.75;;;4.36;100.00
19236;BME280;9752;54.270;12.470;2023-04-07T17:54:55;103111.09;;;4.40;100.00
19236;BME280;9752;54.270;12.470;2023-04-07T17:59:58;103118.44;;;4.44;100.00
19236;BME280;9752;54.270;12.470;2023-04-07T18:05:00;103126.50;;;4.33;100.00
19236;BME280;9752;54.270;12.470;2023-04-07T18:10:03;103140.09;;;4.39;100.00
19236;BME280;9752;54.270;12.470;2023-04-07T18:15:07;103145.59;;;4.42;100.00
19236;BME280;9752;54.270;12.470;2023-04-07T18:20:10;103154.41;;;4.44;100.00
19236;BME280;9752;54.270;12.470;2023-04-07T18:25:12;103162.47;;;4.40;100.00
19236;BME280;9752;54.270;12.470;2023-04-07T18:30:15;103170.22;;;4.47;100.00
19236;BME280;9752;54.270;12.470;2023-04-07T18:35:17;103181.78;;;4.50;100.00
19236;BME280;9752;54.270;12.470;2023-04-07T18:40:19;103190.78;;;4.47;100.00
19236;BME280;9752;54.270;12.470;2023-04-07T18:45:22;103203.25;;;4.51;100.00
19236;BME280;9752;54.270;12.470;2023-04-07T18:50:24;103221.25;;;4.51;100.00
19236;BME280;9752;54.270;12.470;2023-04-07T18:55:25;103224.56;;;4.50;100.00
19236;BME280;9752;54.270;12.470;2023-04-07T19:00:29;103236.66;;;4.51;100.00
19236;BME280;9752;54.270;12.470;2023-04-07T19:05:31;103238.16;;;4.56;100.00
19236;BME280;9752;54.270;12.470;2023-04-07T19:10:33;103247.53;;;4.56;100.00
19236;BME280;9752;54.270;12.470;2023-04-07T19:15:36;103257.81;;;4.56;100.00
19236;BME280;9752;54.270;12.470;2023-04-07T19:20:39;103260.94;;;4.60;100.00
19236;BME280;9752;54.270;12.470;2023-04-07T19:25:42;103266.25;;;4.55;100.00
19236;BME280;9752;54.270;12.470;2023-04-07T19:30:45;103272.28;;;4.55;100.00
19236;BME280;9752;54.270;12.470;2023-04-07T19:35:47;103276.53;;;4.55;100.00
19236;BME280;9752;54.270;12.470;2023-04-07T19:40:48;103281.31;;;4.59;100.00
19236;BME280;9752;54.270;12.470;2023-04-07T19:45:52;103284.03;;;4.53;100.00
19236;BME280;9752;54.270;12.470;2023-04-07T19:50:53;103293.16;;;4.44;100.00
19236;BME280;9752;54.270;12.470;2023-04-07T19:55:55;103287.66;;;4.41;100.00
19236;BME280;9752;54.270;12.470;2023-04-07T20:00:58;103291.75;;;4.46;100.00
19236;BME280;9752;54.270;12.470;2023-04-07T20:06:02;103311.00;;;4.49;100.00
19236;BME280;9752;54.270;12.470;2023-04-07T20:11:03;103308.97;;;4.47;100.00
19236;BME280;9752;54.270;12.470;2023-04-07T20:16:08;103315.44;;;4.50;100.00
19236;BME280;9752;54.270;12.470;2023-04-07T20:21:10;103316.69;;;4.47;100.00
19236;BME280;9752;54.270;12.470;2023-04-07T20:26:12;103325.91;;;4.52;100.00
19236;BME280;9752;54.270;12.470;2023-04-07T20:31:15;103314.28;;;4.41;100.00
19236;BME280;9752;54.270;12.470;2023-04-07T20:36:17;103318.16;;;4.45;100.00
19236;BME280;9752;54.270;12.470;2023-04-07T20:41:19;103327.72;;;4.46;100.00
19236;BME280;9752;54.270;12.470;2023-04-07T20:46:23;103339.78;;;4.40;100.00
19236;BME280;9752;54.270;12.470;2023-04-07T20:51:25;103338.00;;;4.46;100.00
19236;BME280;9752;54.270;12.470;2023-04-07T20:56:28;103350.06;;;4.40;100.00
19236;BME280;9752;54.270;12.470;2023-04-07T21:01:31;103350.44;;;4.43;100.00
19236;BME280;9752;54.270;12.470;2023-04-07T21:06:32;103355.38;;;4.41;100.00
19236;BME280;9752;54.270;12.470;2023-04-07T21:11:34;103359.63;;;4.41;100.00
19236;BME280;9752;54.270;12.470;2023-04-07T21:16:38;103369.16;;;4.42;100.00
19236;BME280;9752;54.270;12.470;2023-04-07T21:21:39;103372.25;;;4.39;100.00
19236;BME280;9752;54.270;12.470;2023-04-07T21:26:41;103378.72;;;4.43;100.00
19236;BME280;9752;54.270;12.470;2023-04-07T21:31:44;103380.16;;;4.41;100.00
19236;BME280;9752;54.270;12.470;2023-04-07T21:36:46;103394.34;;;4.44;100.00
19236;BME280;9752;54.270;12.470;2023-04-07T21:41:48;103391.56;;;4.43;100.00
19236;BME280;9752;54.270;12.470;2023-04-07T21:46:51;103388.09;;;4.42;100.00
19236;BME280;9752;54.270;12.470;2023-04-07T21:51:53;103397.81;;;4.45;100.00
19236;BME280;9752;54.270;12.470;2023-04-07T21:56:54;103397.47;;;4.49;100.00
19236;BME280;9752;54.270;12.470;2023-04-07T22:01:58;103397.25;;;4.40;100.00
19236;BME280;9752;54.270;12.470;2023-04-07T22:07:00;103401.28;;;4.45;100.00
19236;BME280;9752;54.270;12.470;2023-04-07T22:12:02;103398.88;;;4.40;100.00
19236;BME280;9752;54.270;12.470;2023-04-07T22:17:05;103397.25;;;4.40;100.00
19236;BME280;9752;54.270;12.470;2023-04-07T22:22:06;103397.06;;;4.39;100.00
19236;BME280;9752;54.270;12.470;2023-04-07T22:27:08;103397.97;;;4.39;100.00
19236;BME280;9752;54.270;12.470;2023-04-07T22:32:12;103397.25;;;4.40;100.00
19236;BME280;9752;54.270;12.470;2023-04-07T22:37:13;103404.22;;;4.41;100.00
19236;BME280;9752;54.270;12.470;2023-04-07T22:42:15;103405.72;;;4.46;100.00
19236;BME280;9752;54.270;12.470;2023-04-07T22:47:19;103404.41;;;4.43;100.00
19236;BME280;9752;54.270;12.470;2023-04-07T22:52:21;103404.41;;;4.43;100.00
19236;BME280;9752;54.270;12.470;2023-04-07T22:57:22;103416.16;;;4.41;100.00
19236;BME280;9752;54.270;12.470;2023-04-07T23:02:26;103429.72;;;4.40;100.00
19236;BME280;9752;54.270;12.470;2023-04-07T23:07:27;103431.16;;;4.38;100.00
19236;BME280;9752;54.270;12.470;2023-04-07T23:12:29;103429.72;;;4.40;100.00
19236;BME280;9752;54.270;12.470;2023-04-07T23:17:33;103441.44;;;4.38;100.00
19236;BME280;9752;54.270;12.470;2023-04-07T23:22:34;103439.63;;;4.37;100.00
19236;BME280;9752;54.270;12.470;2023-04-07T23:27:36;103444.75;;;4.37;100.00
19236;BME280;9752;54.270;12.470;2023-04-07T23:32:39;103441.06;;;4.35;100.00
19236;BME280;9752;54.270;12.470;2023-04-07T23:37:41;103441.59;;;4.32;100.00
19236;BME280;9752;54.270;12.470;2023-04-07T23:42:43;103436.44;;;4.32;100.00
19236;BME280;9752;54.270;12.470;2023-04-07T23:47:46;103440.13;;;4.34;100.00
19236;BME280;9752;54.270;12.470;2023-04-07T23:52:47;103439.97;;;4.33;100.00
19236;BME280;9752;54.270;12.470;2023-04-07T23:57:49;103435.53;;;4.32;100.00
